Time;durP1;ratioP1;P1;durP2;ratioP2;P2;SDS_P1;SDS_P2;PMS_P1;PMS_P2;Temp;Humidity;BMP_temperature;BMP_pressure;BME280_temperature;BME280_humidity;BME280_pressure;Samples;Min_cycle;Max_cycle;Signal;HPM_P1;HPM_P2
2023/09/09 00:01:00;;;;;;;;;;;;;;;;;;2208276;59;1840;-22
2023/09/09 00:03:30;;;;;;;;;;;;;;;;;;2209704;67;2016;-22
2023/09/09 00:06:10;;;;;;;;;;;;;;;;;;2205779;59;1846;-22
2023/09/09 00:08:40;;;;;;;;;;;;;;;;;;2205160;59;3349;-22
2023/09/09 00:11:11;;;;;;;;;;;;;;;;;;2208876;59;3427;-22
2023/09/09 00:13:41;;;;;;;;;;;;;;;;;;2205921;59;1771;-22
2023/09/09 00:16:11;;;;;;;;;;;;;;;;;;2208750;59;2559;-23
2023/09/09 00:18:42;;;;;;;;;;;;;;;;;;2210033;59;1810;-23
2023/09/09 00:21:14;;;;;;;;;;;;;;;;;;2205865;59;1914;-22
2023/09/09 00:23:44;;;;;;;;;;;;;;;;;;2209255;59;2077;-21
2023/09/09 00:26:14;;;;;;;;;;;;;;;;;;2209687;67;1934;-22
2023/09/09 00:28:44;;;;;;;;;;;;;;;;;;2209826;59;1763;-22
2023/09/09 00:31:15;;;;;;;;;;;;;;;;;;2209714;59;2154;-22
2023/09/09 00:33:45;;;;;;;;;;;;;;;;;;2209205;59;1969;-22
2023/09/09 00:36:15;;;;;;;;;;;;;;;;;;2210840;59;2703;-23
2023/09/09 00:38:46;;;;;;;;;;;;;;;;;;2204062;59;1816;-23
2023/09/09 00:41:17;;;;;;;;;;;;;;;;;;2203976;59;1811;-23
2023/09/09 00:43:48;;;;;;;;;;;;;;;;;;2210088;59;1916;-23
2023/09/09 00:46:19;;;;;;;;;;;;;;;;;;2209563;59;2047;-23
2023/09/09 00:48:50;;;;;;;;;;;;;;;;;;2208969;67;1960;-22
2023/09/09 00:51:23;;;;;;;;;;;;;;;;;;2209975;59;1946;-22
2023/09/09 00:53:53;;;;;;;;;;;;;;;;;;2209470;59;1844;-22
2023/09/09 00:56:24;;;;;;;;;;;;;;;;;;2210126;59;1944;-22
2023/09/09 00:58:54;;;;;;;;;;;;;;;;;;2208041;67;1903;-22
2023/09/09 01:01:24;;;;;;;;;;;;;;;;;;2210694;59;1796;-23
2023/09/09 01:03:55;;;;;;;;;;;;;;;;;;2208683;59;1944;-23
2023/09/09 01:06:25;;;;;;;;;;;;;;;;;;2209535;67;1801;-21
2023/09/09 01:08:55;;;;;;;;;;;;;;;;;;2208160;67;3256;-21
2023/09/09 01:11:25;;;;;;;;;;;;;;;;;;2209394;59;3593;-22
2023/09/09 01:13:56;;;;;;;;;;;;;;;;;;2205855;67;1855;-21
2023/09/09 01:16:26;;;;;;;;;;;;;;;;;;2204730;59;1899;-22
2023/09/09 01:18:56;;;;;;;;;;;;;;;;;;2207970;59;1890;-23
2023/09/09 01:21:28;;;;;;;;;;;;;;;;;;2210252;59;1745;-27
2023/09/09 01:23:58;;;;;;;;;;;;;;;;;;2202873;67;1999;-22
2023/09/09 01:26:28;;;;;;;;;;;;;;;;;;2209754;59;2007;-22
2023/09/09 01:28:59;;;;;;;;;;;;;;;;;;2209073;59;1860;-22
2023/09/09 01:31:29;;;;;;;;;;;;;;;;;;2210289;59;1852;-22
2023/09/09 01:33:59;;;;;;;;;;;;;;;;;;2205758;59;1814;-22
2023/09/09 01:36:29;;;;;;;;;;;;;;;;;;2207194;59;1781;-23
2023/09/09 01:39:00;;;;;;;;;;;;;;;;;;2208020;67;1836;-22
2023/09/09 01:41:30;;;;;;;;;;;;;;;;;;2206866;67;1760;-22
2023/09/09 01:44:00;;;;;;;;;;;;;;;;;;2206126;59;1939;-22
2023/09/09 01:46:30;;;;;;;;;;;;;;;;;;2209840;59;2679;-22
2023/09/09 01:49:03;;;;;;;;;;;;;;;;;;2206223;59;1853;-22
2023/09/09 01:51:34;;;;;;;;;;;;;;;;;;2210211;59;2010;-22
2023/09/09 01:54:04;;;;;;;;;;;;;;;;;;2208702;59;1787;-21
2023/09/09 01:56:34;;;;;;;;;;;;;;;;;;2204005;59;2732;-22
2023/09/09 01:59:04;;;;;;;;;;;;;;;;;;2208113;67;1877;-22
2023/09/09 02:01:34;;;;;;;;;;;;;;;;;;2210385;59;1952;-22
2023/09/09 02:04:05;;;;;;;;;;;;;;;;;;2208729;67;1939;-22
2023/09/09 02:06:35;;;;;;;;;;;;;;;;;;2209596;67;1877;-22
2023/09/09 02:09:05;;;;;;;;;;;;;;;;;;2208338;59;1801;-22
2023/09/09 02:11:35;;;;;;;;;;;;;;;;;;2205789;59;3153;-22
2023/09/09 02:14:06;;;;;;;;;;;;;;;;;;2208392;67;1860;-22
2023/09/09 02:16:36;;;;;;;;;;;;;;;;;;2206162;67;1768;-22
2023/09/09 02:19:06;;;;;;;;;;;;;;;;;;2208254;59;1927;-22
2023/09/09 02:21:37;;;;;;;;;;;;;;;;;;2207018;67;1989;-22
2023/09/09 02:24:07;;;;;;;;;;;;;;;;;;2208583;59;2450;-22
2023/09/09 02:26:37;;;;;;;;;;;;;;;;;;2207382;59;1929;-22
2023/09/09 02:29:07;;;;;;;;;;;;;;;;;;2208080;59;1850;-22
2023/09/09 02:31:38;;;;;;;;;;;;;;;;;;2210461;59;1883;-21
2023/09/09 02:34:08;;;;;;;;;;;;;;;;;;2208337;59;1854;-21
2023/09/09 02:36:43;;;;;;;;;;;;;;;;;;2210232;63;1813;-21
2023/09/09 02:41:53;;;;;;;;;;;;;;;;;;1954708;56;28881;-24
2023/09/09 02:44:24;;;;;;;;;;;;;;;;;;2208152;59;2540;-24
2023/09/09 02:46:54;;;;;;;;;;;;;;;;;;2210700;67;1785;-24
2023/09/09 02:49:24;;;;;;;;;;;;;;;;;;2209162;59;1788;-23
2023/09/09 02:51:55;;;;;;;;;;;;;;;;;;2207189;59;2688;-24
2023/09/09 02:54:25;;;;;;;;;;;;;;;;;;2204585;59;1845;-24
2023/09/09 02:56:55;;;;;;;;;;;;;;;;;;2207539;59;2766;-24
2023/09/09 02:59:26;;;;;;;;;;;;;;;;;;2206808;59;2759;-24
2023/09/09 03:01:56;;;;;;;;;;;;;;;;;;2204171;59;2671;-24
2023/09/09 03:04:26;;;;;;;;;;;;;;;;;;2207715;67;3974;-23
2023/09/09 03:06:57;;;;;;;;;;;;;;;;;;2206021;67;2158;-24
2023/09/09 03:09:29;;;;;;;;;;;;;;;;;;2206873;67;3222;-24
2023/09/09 03:12:01;;;;;;;;;;;;;;;;;;2205433;59;2372;-24
2023/09/09 03:14:31;;;;;;;;;;;;;;;;;;2206749;67;2903;-24
2023/09/09 03:17:01;;;;;;;;;;;;;;;;;;2207121;67;3573;-23
2023/09/09 03:19:31;;;;;;;;;;;;;;;;;;2207387;59;2870;-23
2023/09/09 03:22:02;;;;;;;;;;;;;;;;;;2207058;67;1987;-24
2023/09/09 03:24:32;;;;;;;;;;;;;;;;;;2203858;67;2832;-24
2023/09/09 03:27:02;;;;;;;;;;;;;;;;;;2203766;67;4150;-24
2023/09/09 03:29:32;;;;;;;;;;;;;;;;;;2202530;59;3148;-24
2023/09/09 03:32:03;;;;;;;;;;;;;;;;;;2202965;59;3585;-23
2023/09/09 03:34:33;;;;;;;;;;;;;;;;;;2207539;67;2525;-23
2023/09/09 03:37:03;;;;;;;;;;;;;;;;;;2206795;59;2184;-23
2023/09/09 03:39:34;;;;;;;;;;;;;;;;;;2207263;63;3962;-23
2023/09/09 03:42:04;;;;;;;;;;;;;;;;;;2203426;59;2891;-24
2023/09/09 03:44:34;;;;;;;;;;;;;;;;;;2207294;59;4380;-23
2023/09/09 03:47:04;;;;;;;;;;;;;;;;;;2202891;67;2054;-23
2023/09/09 03:49:35;;;;;;;;;;;;;;;;;;2207136;59;2765;-24
2023/09/09 03:52:05;;;;;;;;;;;;;;;;;;2204685;59;4817;-24
2023/09/09 03:54:38;;;;;;;;;;;;;;;;;;2207012;60;2260;-24
2023/09/09 03:57:08;;;;;;;;;;;;;;;;;;2206989;59;1896;-23
2023/09/09 03:59:39;;;;;;;;;;;;;;;;;;2203082;67;3065;-23
2023/09/09 04:02:09;;;;;;;;;;;;;;;;;;2206438;59;3429;-23
2023/09/09 04:04:39;;;;;;;;;;;;;;;;;;2207123;67;2097;-23
2023/09/09 04:07:09;;;;;;;;;;;;;;;;;;2206366;67;3310;-23
2023/09/09 04:09:40;;;;;;;;;;;;;;;;;;2206951;67;1401;-23
2023/09/09 04:12:11;;;;;;;;;;;;;;;;;;2205792;59;3422;-23
2023/09/09 04:14:41;;;;;;;;;;;;;;;;;;2206280;59;2870;-23
2023/09/09 04:17:15;;;;;;;;;;;;;;;;;;2206643;59;1796;-23
2023/09/09 04:19:48;;;;;;;;;;;;;;;;;;2206652;59;2400;-23
2023/09/09 04:22:18;;;;;;;;;;;;;;;;;;2206770;67;1992;-23
2023/09/09 04:24:48;;;;;;;;;;;;;;;;;;2208194;67;1867;-23
2023/09/09 04:27:18;;;;;;;;;;;;;;;;;;2206369;59;2872;-23
2023/09/09 04:29:49;;;;;;;;;;;;;;;;;;2206005;59;2146;-23
2023/09/09 04:32:19;;;;;;;;;;;;;;;;;;2206559;59;2115;-23
2023/09/09 04:34:49;;;;;;;;;;;;;;;;;;2206866;67;2592;-23
2023/09/09 04:37:19;;;;;;;;;;;;;;;;;;2206204;67;3362;-23
2023/09/09 04:39:50;;;;;;;;;;;;;;;;;;2207004;67;1948;-23
2023/09/09 04:42:21;;;;;;;;;;;;;;;;;;2205666;67;2792;-23
2023/09/09 04:44:51;;;;;;;;;;;;;;;;;;2204321;67;3004;-23
2023/09/09 04:47:21;;;;;;;;;;;;;;;;;;2206717;67;2181;-23
2023/09/09 04:49:51;;;;;;;;;;;;;;;;;;2207948;59;1971;-23
2023/09/09 04:52:22;;;;;;;;;;;;;;;;;;2206722;59;2113;-23
2023/09/09 04:54:52;;;;;;;;;;;;;;;;;;2205132;59;2121;-24
2023/09/09 04:57:23;;;;;;;;;;;;;;;;;;2209179;67;1877;-23
2023/09/09 04:59:53;;;;;;;;;;;;;;;;;;2208670;59;3127;-24
2023/09/09 05:02:23;;;;;;;;;;;;;;;;;;2209257;67;1983;-24
2023/09/09 05:04:54;;;;;;;;;;;;;;;;;;2208641;67;2447;-23
2023/09/09 05:07:24;;;;;;;;;;;;;;;;;;2207414;67;2405;-24
2023/09/09 05:09:54;;;;;;;;;;;;;;;;;;2208055;67;2057;-24
2023/09/09 05:12:25;;;;;;;;;;;;;;;;;;2207554;59;2715;-24
2023/09/09 05:14:55;;;;;;;;;;;;;;;;;;2202876;59;2975;-24
2023/09/09 05:17:25;;;;;;;;;;;;;;;;;;2207799;59;2610;-24
2023/09/09 05:19:56;;;;;;;;;;;;;;;;;;2207472;67;2689;-24
2023/09/09 05:22:26;;;;;;;;;;;;;;;;;;2207731;59;1985;-24
2023/09/09 05:24:56;;;;;;;;;;;;;;;;;;2204381;67;2076;-23
2023/09/09 05:27:27;;;;;;;;;;;;;;;;;;2207040;59;1783;-24
2023/09/09 05:29:59;;;;;;;;;;;;;;;;;;2201277;59;1791;-24
2023/09/09 05:32:29;;;;;;;;;;;;;;;;;;2203522;59;2329;-24
2023/09/09 05:35:00;;;;;;;;;;;;;;;;;;2207122;59;1967;-24
2023/09/09 05:37:31;;;;;;;;;;;;;;;;;;2206816;59;2028;-23
2023/09/09 05:40:02;;;;;;;;;;;;;;;;;;2206664;59;1804;-25
2023/09/09 05:42:34;;;;;;;;;;;;;;;;;;2202875;59;1975;-24
2023/09/09 05:45:08;;;;;;;;;;;;;;;;;;2200650;59;2614;-24
2023/09/09 05:47:39;;;;;;;;;;;;;;;;;;2206056;59;2678;-23
2023/09/09 05:50:11;;;;;;;;;;;;;;;;;;2200970;59;2620;-25
2023/09/09 05:52:42;;;;;;;;;;;;;;;;;;2204090;59;1803;-24
2023/09/09 05:55:13;;;;;;;;;;;;;;;;;;2207396;59;1833;-24
2023/09/09 05:57:44;;;;;;;;;;;;;;;;;;2207630;59;1885;-24
2023/09/09 06:00:14;;;;;;;;;;;;;;;;;;2207132;59;3152;-24
2023/09/09 06:02:44;;;;;;;;;;;;;;;;;;2207540;59;1936;-25
2023/09/09 06:05:15;;;;;;;;;;;;;;;;;;2205104;59;1832;-23
2023/09/09 06:07:46;;;;;;;;;;;;;;;;;;2207772;59;2041;-23
2023/09/09 06:10:16;;;;;;;;;;;;;;;;;;2202946;59;2253;-23
2023/09/09 06:12:47;;;;;;;;;;;;;;;;;;2197316;59;1667;-24
2023/09/09 06:15:18;;;;;;;;;;;;;;;;;;2201747;59;3378;-23
2023/09/09 06:17:49;;;;;;;;;;;;;;;;;;2200918;59;1776;-23
2023/09/09 06:20:20;;;;;;;;;;;;;;;;;;2199343;59;2715;-23
2023/09/09 06:22:51;;;;;;;;;;;;;;;;;;2199730;59;2530;-23
2023/09/09 06:25:22;;;;;;;;;;;;;;;;;;2205350;59;2572;-23
2023/09/09 06:27:53;;;;;;;;;;;;;;;;;;2202353;59;2617;-23
2023/09/09 06:30:31;;;;;;;;;;;;;;;;;;2202179;59;2368;-23
2023/09/09 06:33:02;;;;;;;;;;;;;;;;;;2203588;59;3032;-24
2023/09/09 06:35:33;;;;;;;;;;;;;;;;;;2207904;59;1866;-24
2023/09/09 06:38:04;;;;;;;;;;;;;;;;;;2201308;59;1865;-24
2023/09/09 06:40:34;;;;;;;;;;;;;;;;;;2206304;59;2126;-24
2023/09/09 06:43:05;;;;;;;;;;;;;;;;;;2204351;59;2949;-23
2023/09/09 06:45:35;;;;;;;;;;;;;;;;;;2203104;59;1846;-24
2023/09/09 06:48:05;;;;;;;;;;;;;;;;;;2206858;59;2418;-23
2023/09/09 06:50:36;;;;;;;;;;;;;;;;;;2208542;59;2496;-23
2023/09/09 06:53:06;;;;;;;;;;;;;;;;;;2205151;59;1809;-23
2023/09/09 06:55:36;;;;;;;;;;;;;;;;;;2208180;59;2484;-23
2023/09/09 06:58:12;;;;;;;;;;;;;;;;;;2208065;59;2899;-23
2023/09/09 07:00:48;;;;;;;;;;;;;;;;;;2209317;59;3132;-23
2023/09/09 07:03:19;;;;;;;;;;;;;;;;;;2208937;59;3155;-24
2023/09/09 07:05:49;;;;;;;;;;;;;;;;;;2208168;67;2367;-24
2023/09/09 07:08:20;;;;;;;;;;;;;;;;;;2207997;67;2320;-24
2023/09/09 07:11:04;;;;;;;;;;;;;;;;;;2215188;59;2418;-24
2023/09/09 07:13:45;;;;;;;;;;;;;;;;;;2203916;59;4046;-24
2023/09/09 07:16:16;;;;;;;;;;;;;;;;;;2206154;59;2891;-24
2023/09/09 07:18:46;;;;;;;;;;;;;;;;;;2205262;59;2204;-24
2023/09/09 07:21:17;;;;;;;;;;;;;;;;;;2200526;59;1865;-24
2023/09/09 07:23:48;;;;;;;;;;;;;;;;;;2200578;59;1996;-24
2023/09/09 07:26:18;;;;;;;;;;;;;;;;;;2201613;59;1881;-24
2023/09/09 07:28:49;;;;;;;;;;;;;;;;;;2204882;59;1959;-24
2023/09/09 07:31:19;;;;;;;;;;;;;;;;;;2204981;59;1614;-24
2023/09/09 07:33:52;;;;;;;;;;;;;;;;;;2205643;59;2578;-24
2023/09/09 07:36:23;;;;;;;;;;;;;;;;;;2198826;59;1685;-24
2023/09/09 07:38:53;;;;;;;;;;;;;;;;;;2198896;59;1779;-24
2023/09/09 07:41:25;;;;;;;;;;;;;;;;;;2199961;59;2681;-24
2023/09/09 07:43:56;;;;;;;;;;;;;;;;;;2198799;59;1943;-24
2023/09/09 07:46:28;;;;;;;;;;;;;;;;;;2207071;59;1815;-24
2023/09/09 07:48:58;;;;;;;;;;;;;;;;;;2207916;59;1987;-24
2023/09/09 07:51:28;;;;;;;;;;;;;;;;;;2206292;59;2228;-24
2023/09/09 07:53:59;;;;;;;;;;;;;;;;;;2205986;59;2157;-24
2023/09/09 07:56:29;;;;;;;;;;;;;;;;;;2206727;59;2108;-24
2023/09/09 07:58:59;;;;;;;;;;;;;;;;;;2203488;59;3204;-24
2023/09/09 08:01:30;;;;;;;;;;;;;;;;;;2207338;59;1780;-24
2023/09/09 08:04:00;;;;;;;;;;;;;;;;;;2203964;59;2878;-24
2023/09/09 08:06:30;;;;;;;;;;;;;;;;;;2207453;59;1865;-23
2023/09/09 08:09:01;;;;;;;;;;;;;;;;;;2203938;59;1784;-24
2023/09/09 08:11:37;;;;;;;;;;;;;;;;;;2217245;59;1854;-24
2023/09/09 08:14:15;;;;;;;;;;;;;;;;;;2202265;67;3311;-24
2023/09/09 08:16:45;;;;;;;;;;;;;;;;;;2201939;59;2282;-24
2023/09/09 08:19:16;;;;;;;;;;;;;;;;;;2205477;59;2689;-22
2023/09/09 08:21:46;;;;;;;;;;;;;;;;;;2206826;59;3709;-22
2023/09/09 08:24:16;;;;;;;;;;;;;;;;;;2202968;67;2817;-22
2023/09/09 08:26:46;;;;;;;;;;;;;;;;;;2202847;59;2854;-22
2023/09/09 08:29:16;;;;;;;;;;;;;;;;;;2205818;59;2314;-22
2023/09/09 08:31:47;;;;;;;;;;;;;;;;;;2206097;59;2498;-22
2023/09/09 08:34:17;;;;;;;;;;;;;;;;;;2203401;67;3011;-22
2023/09/09 08:36:48;;;;;;;;;;;;;;;;;;2206517;67;3110;-22
2023/09/09 08:39:19;;;;;;;;;;;;;;;;;;2206183;64;2251;-22
2023/09/09 08:41:49;;;;;;;;;;;;;;;;;;2206584;59;2483;-22
2023/09/09 08:44:26;;;;;;;;;;;;;;;;;;2206852;59;2769;-22
2023/09/09 08:46:56;;;;;;;;;;;;;;;;;;2207260;67;2378;-22
2023/09/09 08:49:28;;;;;;;;;;;;;;;;;;2206360;59;2691;-22
2023/09/09 08:52:02;;;;;;;;;;;;;;;;;;2207635;59;2532;-22
2023/09/09 08:54:32;;;;;;;;;;;;;;;;;;2203702;67;3262;-22
2023/09/09 08:57:03;;;;;;;;;;;;;;;;;;2204734;67;2447;-22
2023/09/09 08:59:34;;;;;;;;;;;;;;;;;;2206536;59;2926;-22
2023/09/09 09:02:05;;;;;;;;;;;;;;;;;;2207456;59;3052;-22
2023/09/09 09:04:36;;;;;;;;;;;;;;;;;;2207172;67;2885;-22
2023/09/09 09:07:07;;;;;;;;;;;;;;;;;;2203426;67;2765;-22
2023/09/09 09:09:37;;;;;;;;;;;;;;;;;;2203053;67;1930;-22
2023/09/09 09:12:10;;;;;;;;;;;;;;;;;;2206735;59;2351;-22
2023/09/09 09:14:47;;;;;;;;;;;;;;;;;;2206797;67;2235;-22
2023/09/09 09:17:17;;;;;;;;;;;;;;;;;;2207169;59;2365;-22
2023/09/09 09:19:47;;;;;;;;;;;;;;;;;;2207941;67;2362;-22
2023/09/09 09:22:17;;;;;;;;;;;;;;;;;;2206728;67;2309;-22
2023/09/09 09:24:48;;;;;;;;;;;;;;;;;;2207545;67;1840;-22
2023/09/09 09:27:18;;;;;;;;;;;;;;;;;;2207427;67;2780;-22
2023/09/09 09:29:48;;;;;;;;;;;;;;;;;;2207233;59;2452;-22
2023/09/09 09:32:18;;;;;;;;;;;;;;;;;;2206771;59;2693;-22
2023/09/09 09:34:50;;;;;;;;;;;;;;;;;;2207138;67;2420;-22
2023/09/09 09:37:20;;;;;;;;;;;;;;;;;;2207212;59;2604;-22
2023/09/09 09:39:52;;;;;;;;;;;;;;;;;;2206796;59;2286;-22
2023/09/09 09:42:25;;;;;;;;;;;;;;;;;;2206423;67;2457;-22
2023/09/09 09:45:07;;;;;;;;;;;;;;;;;;2202821;59;2975;-22
2023/09/09 09:47:46;;;;;;;;;;;;;;;;;;2206945;67;2676;-22
2023/09/09 09:50:18;;;;;;;;;;;;;;;;;;2203638;59;2493;-22
2023/09/09 09:52:56;;;;;;;;;;;;;;;;;;2207408;59;2344;-22
2023/09/09 09:55:27;;;;;;;;;;;;;;;;;;2207947;59;2338;-22
2023/09/09 09:57:59;;;;;;;;;;;;;;;;;;2206699;67;2647;-22
2023/09/09 10:00:30;;;;;;;;;;;;;;;;;;2206491;59;2479;-22
2023/09/09 10:03:02;;;;;;;;;;;;;;;;;;2206927;62;2400;-22
2023/09/09 10:05:33;;;;;;;;;;;;;;;;;;2206436;67;2886;-22
2023/09/09 10:08:11;;;;;;;;;;;;;;;;;;2206146;67;2837;-22
2023/09/09 10:10:52;;;;;;;;;;;;;;;;;;2206712;59;3073;-22
2023/09/09 10:13:29;;;;;;;;;;;;;;;;;;2207317;59;2781;-22
2023/09/09 10:16:05;;;;;;;;;;;;;;;;;;2203072;67;2435;-22
2023/09/09 10:18:37;;;;;;;;;;;;;;;;;;2205682;59;2619;-22
2023/09/09 10:21:09;;;;;;;;;;;;;;;;;;2206703;67;2877;-22
2023/09/09 10:23:40;;;;;;;;;;;;;;;;;;2206779;67;2312;-22
2023/09/09 10:26:10;;;;;;;;;;;;;;;;;;2206956;59;2418;-22
2023/09/09 10:28:41;;;;;;;;;;;;;;;;;;2203417;59;2118;-22
2023/09/09 10:31:13;;;;;;;;;;;;;;;;;;2203324;59;2311;-22
2023/09/09 10:33:45;;;;;;;;;;;;;;;;;;2206236;67;2444;-22
2023/09/09 10:36:17;;;;;;;;;;;;;;;;;;2206628;67;3045;-22
2023/09/09 10:38:48;;;;;;;;;;;;;;;;;;2206159;67;2662;-22
2023/09/09 10:41:18;;;;;;;;;;;;;;;;;;2206412;59;2600;-22
2023/09/09 10:43:48;;;;;;;;;;;;;;;;;;2203030;67;2413;-22
2023/09/09 10:46:31;;;;;;;;;;;;;;;;;;2206256;67;2665;-23
2023/09/09 10:49:02;;;;;;;;;;;;;;;;;;2206448;67;2398;-22
2023/09/09 10:51:49;;;;;;;;;;;;;;;;;;2207257;59;3108;-23
2023/09/09 10:54:22;;;;;;;;;;;;;;;;;;2206963;59;2217;-22
2023/09/09 10:56:53;;;;;;;;;;;;;;;;;;2207473;59;3809;-22
2023/09/09 10:59:24;;;;;;;;;;;;;;;;;;2206243;67;2859;-23
2023/09/09 11:02:08;;;;;;;;;;;;;;;;;;2204078;59;2383;-22
2023/09/09 11:04:40;;;;;;;;;;;;;;;;;;2206957;67;2699;-22
2023/09/09 11:07:13;;;;;;;;;;;;;;;;;;2207333;59;2745;-22
2023/09/09 11:09:51;;;;;;;;;;;;;;;;;;2207094;59;3010;-22
2023/09/09 11:12:27;;;;;;;;;;;;;;;;;;2207172;59;2385;-22
2023/09/09 11:15:04;;;;;;;;;;;;;;;;;;2206836;67;2486;-22
2023/09/09 11:17:36;;;;;;;;;;;;;;;;;;2200599;59;2546;-22
2023/09/09 11:20:10;;;;;;;;;;;;;;;;;;2206180;59;2266;-22
2023/09/09 11:22:41;;;;;;;;;;;;;;;;;;2205861;67;2504;-22
2023/09/09 11:25:14;;;;;;;;;;;;;;;;;;2202715;67;3337;-23
2023/09/09 11:27:44;;;;;;;;;;;;;;;;;;2206090;59;2429;-23
2023/09/09 11:30:14;;;;;;;;;;;;;;;;;;2205960;67;2533;-22
2023/09/09 11:32:47;;;;;;;;;;;;;;;;;;2206983;64;2697;-22
2023/09/09 11:35:18;;;;;;;;;;;;;;;;;;2207542;67;2468;-22
2023/09/09 11:37:48;;;;;;;;;;;;;;;;;;2204156;67;2584;-23
2023/09/09 11:40:18;;;;;;;;;;;;;;;;;;2202410;59;2456;-23
2023/09/09 11:42:51;;;;;;;;;;;;;;;;;;2205820;67;2310;-23
2023/09/09 11:45:22;;;;;;;;;;;;;;;;;;2206345;59;2397;-23
2023/09/09 11:47:52;;;;;;;;;;;;;;;;;;2206445;67;2177;-23
2023/09/09 11:50:37;;;;;;;;;;;;;;;;;;2206383;59;2488;-23
2023/09/09 11:53:07;;;;;;;;;;;;;;;;;;2203605;59;2350;-22
2023/09/09 11:55:38;;;;;;;;;;;;;;;;;;2206452;59;1858;-22
2023/09/09 11:58:08;;;;;;;;;;;;;;;;;;2202355;67;2513;-23
2023/09/09 12:00:38;;;;;;;;;;;;;;;;;;2202790;59;2372;-22
2023/09/09 12:03:09;;;;;;;;;;;;;;;;;;2206083;59;2439;-22
2023/09/09 12:05:39;;;;;;;;;;;;;;;;;;2203648;67;2695;-22
2023/09/09 12:08:09;;;;;;;;;;;;;;;;;;2206304;67;2952;-22
2023/09/09 12:10:40;;;;;;;;;;;;;;;;;;2203977;59;2392;-22
2023/09/09 12:13:10;;;;;;;;;;;;;;;;;;2203527;59;2312;-22
2023/09/09 12:15:44;;;;;;;;;;;;;;;;;;2207164;67;2900;-22
2023/09/09 12:18:14;;;;;;;;;;;;;;;;;;2206848;59;3761;-23
2023/09/09 12:21:05;;;;;;;;;;;;;;;;;;2205188;59;2312;-22
2023/09/09 12:23:37;;;;;;;;;;;;;;;;;;2204094;67;2482;-22
2023/09/09 12:26:13;;;;;;;;;;;;;;;;;;2203837;59;2343;-22
2023/09/09 12:29:03;;;;;;;;;;;;;;;;;;2206474;59;2666;-22
2023/09/09 12:31:48;;;;;;;;;;;;;;;;;;2207069;59;2636;-22
2023/09/09 12:34:19;;;;;;;;;;;;;;;;;;2203036;67;2270;-22
2023/09/09 12:36:50;;;;;;;;;;;;;;;;;;2206711;67;2691;-22
2023/09/09 12:39:23;;;;;;;;;;;;;;;;;;2207065;67;2172;-22
2023/09/09 12:42:00;;;;;;;;;;;;;;;;;;2207046;59;2305;-22
2023/09/09 12:44:31;;;;;;;;;;;;;;;;;;2204606;59;3085;-22
2023/09/09 12:47:03;;;;;;;;;;;;;;;;;;2203169;67;3334;-22
2023/09/09 12:49:33;;;;;;;;;;;;;;;;;;2206514;67;2745;-22
2023/09/09 12:52:03;;;;;;;;;;;;;;;;;;2206668;59;2301;-22
2023/09/09 12:54:34;;;;;;;;;;;;;;;;;;2206580;59;2551;-22
2023/09/09 12:57:04;;;;;;;;;;;;;;;;;;2206920;59;2445;-22
2023/09/09 12:59:34;;;;;;;;;;;;;;;;;;2206989;67;2997;-22
2023/09/09 13:02:05;;;;;;;;;;;;;;;;;;2206649;59;2661;-22
2023/09/09 13:04:37;;;;;;;;;;;;;;;;;;2207256;67;2304;-22
2023/09/09 13:07:08;;;;;;;;;;;;;;;;;;2206766;67;2439;-22
2023/09/09 13:09:38;;;;;;;;;;;;;;;;;;2203137;67;2339;-22
2023/09/09 13:12:08;;;;;;;;;;;;;;;;;;2206089;59;3662;-22
2023/09/09 13:14:38;;;;;;;;;;;;;;;;;;2206002;59;2688;-22
2023/09/09 13:17:09;;;;;;;;;;;;;;;;;;2202933;59;2191;-22
2023/09/09 13:19:39;;;;;;;;;;;;;;;;;;2206580;67;2309;-22
2023/09/09 13:22:09;;;;;;;;;;;;;;;;;;2206004;59;3325;-22
2023/09/09 13:24:39;;;;;;;;;;;;;;;;;;2206437;67;2778;-22
2023/09/09 13:27:09;;;;;;;;;;;;;;;;;;2206722;67;3225;-21
2023/09/09 13:29:40;;;;;;;;;;;;;;;;;;2203314;59;2840;-22
2023/09/09 13:32:10;;;;;;;;;;;;;;;;;;2206796;67;2276;-22
2023/09/09 13:34:40;;;;;;;;;;;;;;;;;;2207384;67;3838;-22
2023/09/09 13:37:10;;;;;;;;;;;;;;;;;;2207191;67;2699;-22
2023/09/09 13:39:41;;;;;;;;;;;;;;;;;;2207373;67;2420;-21
2023/09/09 13:42:11;;;;;;;;;;;;;;;;;;2207048;59;2221;-21
2023/09/09 13:44:44;;;;;;;;;;;;;;;;;;2206947;59;2719;-22
2023/09/09 13:47:14;;;;;;;;;;;;;;;;;;2207007;67;2267;-22
2023/09/09 13:49:44;;;;;;;;;;;;;;;;;;2206886;59;2330;-22
2023/09/09 13:52:15;;;;;;;;;;;;;;;;;;2205858;59;2681;-22
2023/09/09 13:54:46;;;;;;;;;;;;;;;;;;2207248;59;3018;-22
2023/09/09 13:57:16;;;;;;;;;;;;;;;;;;2206460;59;2481;-22
2023/09/09 13:59:47;;;;;;;;;;;;;;;;;;2206966;59;2661;-22
2023/09/09 14:02:17;;;;;;;;;;;;;;;;;;2203067;59;2729;-22
2023/09/09 14:04:47;;;;;;;;;;;;;;;;;;2203905;67;2483;-22
2023/09/09 14:07:17;;;;;;;;;;;;;;;;;;2206407;67;2805;-22
2023/09/09 14:09:51;;;;;;;;;;;;;;;;;;2203148;67;2370;-22
2023/09/09 14:12:22;;;;;;;;;;;;;;;;;;2205857;59;2257;-22
2023/09/09 14:14:52;;;;;;;;;;;;;;;;;;2203403;67;2665;-22
2023/09/09 14:17:24;;;;;;;;;;;;;;;;;;2206414;59;2991;-22
2023/09/09 14:19:54;;;;;;;;;;;;;;;;;;2207062;67;2327;-22
2023/09/09 14:22:24;;;;;;;;;;;;;;;;;;2206565;67;2777;-22
2023/09/09 14:24:55;;;;;;;;;;;;;;;;;;2206600;67;2651;-22
2023/09/09 14:27:25;;;;;;;;;;;;;;;;;;2207239;59;2638;-22
2023/09/09 14:29:55;;;;;;;;;;;;;;;;;;2206609;59;3900;-22
2023/09/09 14:32:25;;;;;;;;;;;;;;;;;;2206816;59;2639;-22
2023/09/09 14:34:56;;;;;;;;;;;;;;;;;;2206651;67;2690;-22
2023/09/09 14:37:27;;;;;;;;;;;;;;;;;;2206401;67;3236;-22
2023/09/09 14:39:57;;;;;;;;;;;;;;;;;;2206811;59;2554;-22
2023/09/09 14:42:27;;;;;;;;;;;;;;;;;;2202476;67;2432;-22
2023/09/09 14:44:57;;;;;;;;;;;;;;;;;;2207651;59;2463;-22
2023/09/09 14:47:28;;;;;;;;;;;;;;;;;;2206632;67;2361;-22
2023/09/09 14:49:58;;;;;;;;;;;;;;;;;;2206754;59;1932;-22
2023/09/09 14:52:30;;;;;;;;;;;;;;;;;;2206976;59;2506;-22
2023/09/09 14:55:06;;;;;;;;;;;;;;;;;;2217386;66;2410;-19
2023/09/09 14:57:36;;;;;;;;;;;;;;;;;;2214321;66;2421;-20
2023/09/09 15:00:09;;;;;;;;;;;;;;;;;;2212918;58;2941;-17
2023/09/09 15:02:40;;;;;;;;;;;;;;;;;;2212258;59;2582;-17
2023/09/09 15:05:10;;;;;;;;;;;;;;;;;;2211886;66;2384;-18
2023/09/09 15:07:40;;;;;;;;;;;;;;;;;;2211637;66;2556;-17
2023/09/09 15:10:10;;;;;;;;;;;;;;;;;;2211907;66;2435;-17
2023/09/09 15:12:41;;;;;;;;;;;;;;;;;;2212350;59;2709;-18
2023/09/09 15:15:11;;;;;;;;;;;;;;;;;;2213729;66;2527;-17
2023/09/09 15:17:41;;;;;;;;;;;;;;;;;;2209434;59;2693;-17
2023/09/09 15:20:11;;;;;;;;;;;;;;;;;;2209049;60;2504;-17
2023/09/09 15:22:42;;;;;;;;;;;;;;;;;;2211591;59;2785;-17
2023/09/09 15:25:15;;;;;;;;;;;;;;;;;;2211286;59;2530;-17
2023/09/09 15:27:45;;;;;;;;;;;;;;;;;;2212019;59;2389;-17
2023/09/09 15:30:16;;;;;;;;;;;;;;;;;;2211727;66;4115;-18
2023/09/09 15:32:46;;;;;;;;;;;;;;;;;;2209015;59;3962;-17
2023/09/09 15:35:16;;;;;;;;;;;;;;;;;;2211594;66;3260;-17
2023/09/09 15:37:49;;;;;;;;;;;;;;;;;;2211375;66;2809;-20
2023/09/09 15:40:20;;;;;;;;;;;;;;;;;;2211359;66;3518;-20
2023/09/09 15:42:50;;;;;;;;;;;;;;;;;;2207953;66;2565;-20
2023/09/09 15:45:20;;;;;;;;;;;;;;;;;;2208245;59;2696;-19
2023/09/09 15:47:53;;;;;;;;;;;;;;;;;;2211892;66;2450;-20
2023/09/09 15:50:24;;;;;;;;;;;;;;;;;;2213927;59;3722;-19
2023/09/09 15:52:54;;;;;;;;;;;;;;;;;;2211719;59;2799;-20
2023/09/09 15:55:24;;;;;;;;;;;;;;;;;;2212433;59;3777;-19
2023/09/09 15:57:54;;;;;;;;;;;;;;;;;;2212216;66;2414;-20
2023/09/09 16:00:25;;;;;;;;;;;;;;;;;;2211921;59;3458;-20
2023/09/09 16:02:55;;;;;;;;;;;;;;;;;;2211991;66;4665;-20
2023/09/09 16:05:26;;;;;;;;;;;;;;;;;;2211396;66;2768;-20
2023/09/09 16:07:56;;;;;;;;;;;;;;;;;;2209371;59;2757;-19
2023/09/09 16:10:26;;;;;;;;;;;;;;;;;;2208767;66;3404;-20
2023/09/09 16:12:57;;;;;;;;;;;;;;;;;;2209961;59;2947;-20
2023/09/09 16:15:28;;;;;;;;;;;;;;;;;;2208822;66;2282;-20
2023/09/09 16:17:58;;;;;;;;;;;;;;;;;;2209541;59;3617;-19
2023/09/09 16:20:28;;;;;;;;;;;;;;;;;;2209370;66;2444;-20
2023/09/09 16:23:00;;;;;;;;;;;;;;;;;;2209639;66;3444;-19
2023/09/09 16:25:30;;;;;;;;;;;;;;;;;;2208927;59;2906;-20
2023/09/09 16:28:01;;;;;;;;;;;;;;;;;;2209351;59;3194;-19
2023/09/09 16:30:33;;;;;;;;;;;;;;;;;;2208876;59;3076;-20
2023/09/09 16:33:04;;;;;;;;;;;;;;;;;;2209245;59;3455;-20
2023/09/09 16:35:34;;;;;;;;;;;;;;;;;;2209720;66;3858;-20
2023/09/09 16:38:04;;;;;;;;;;;;;;;;;;2207766;66;2338;-20
2023/09/09 16:40:35;;;;;;;;;;;;;;;;;;2208779;66;2812;-20
2023/09/09 16:43:06;;;;;;;;;;;;;;;;;;2210096;58;4445;-19
2023/09/09 16:45:36;;;;;;;;;;;;;;;;;;2208773;66;2366;-19
2023/09/09 16:48:09;;;;;;;;;;;;;;;;;;2208822;66;4911;-18
2023/09/09 16:50:39;;;;;;;;;;;;;;;;;;2209267;59;2692;-20
2023/09/09 16:53:10;;;;;;;;;;;;;;;;;;2206385;59;2347;-20
2023/09/09 16:55:40;;;;;;;;;;;;;;;;;;2210136;59;2198;-19
2023/09/09 16:58:10;;;;;;;;;;;;;;;;;;2208761;66;2491;-19
2023/09/09 17:00:40;;;;;;;;;;;;;;;;;;2208846;59;2363;-20
2023/09/09 17:03:10;;;;;;;;;;;;;;;;;;2209176;59;3344;-19
2023/09/09 17:05:45;;;;;;;;;;;;;;;;;;2208595;66;2694;-19
2023/09/09 17:08:15;;;;;;;;;;;;;;;;;;2209165;59;4059;-19
2023/09/09 17:10:49;;;;;;;;;;;;;;;;;;2209565;59;2512;-19
2023/09/09 17:13:19;;;;;;;;;;;;;;;;;;2209975;59;2285;-19
2023/09/09 17:15:52;;;;;;;;;;;;;;;;;;2209915;66;3675;-19
2023/09/09 17:18:22;;;;;;;;;;;;;;;;;;2209718;59;3632;-19
2023/09/09 17:20:54;;;;;;;;;;;;;;;;;;2208359;66;4051;-19
2023/09/09 17:23:26;;;;;;;;;;;;;;;;;;2208299;66;4192;-19
2023/09/09 17:26:00;;;;;;;;;;;;;;;;;;2205299;59;3162;-20
2023/09/09 17:28:30;;;;;;;;;;;;;;;;;;2207794;66;2691;-20
2023/09/09 17:31:01;;;;;;;;;;;;;;;;;;2208911;66;3758;-19
2023/09/09 17:33:31;;;;;;;;;;;;;;;;;;2209042;59;2151;-20